sensor_id;sensor_type;location;lat;lon;timestamp;P1;durP1;ratioP1;P2;durP2;ratioP2
75858;SDS011;64504;51.308;8.620;2023-03-02T00:00:42;12.55;;;6.60;;
75858;SDS011;64504;51.308;8.620;2023-03-02T00:03:09;9.25;;;7.07;;
75858;SDS011;64504;51.308;8.620;2023-03-02T00:10:47;9.63;;;7.80;;
75858;SDS011;64504;51.308;8.620;2023-03-02T00:13:13;14.45;;;7.75;;
75858;SDS011;64504;51.308;8.620;2023-03-02T00:15:39;7.18;;;6.47;;
75858;SDS011;64504;51.308;8.620;2023-03-02T00:18:05;7.93;;;6.93;;
75858;SDS011;64504;51.308;8.620;2023-03-02T00:20:31;10.55;;;6.72;;
75858;SDS011;64504;51.308;8.620;2023-03-02T00:23:00;11.45;;;8.00;;
75858;SDS011;64504;51.308;8.620;2023-03-02T00:25:26;22.42;;;8.10;;
75858;SDS011;64504;51.308;8.620;2023-03-02T00:27:53;7.78;;;6.93;;
75858;SDS011;64504;51.308;8.620;2023-03-02T00:30:18;10.80;;;7.93;;
75858;SDS011;64504;51.308;8.620;2023-03-02T00:32:45;10.82;;;8.55;;
75858;SDS011;64504;51.308;8.620;2023-03-02T00:35:12;8.95;;;7.32;;
75858;SDS011;64504;51.308;8.620;2023-03-02T00:37:39;12.43;;;7.25;;
75858;SDS011;64504;51.308;8.620;2023-03-02T00:40:05;11.75;;;7.47;;
75858;SDS011;64504;51.308;8.620;2023-03-02T00:42:35;12.52;;;7.88;;
75858;SDS011;64504;51.308;8.620;2023-03-02T00:45:02;15.75;;;8.77;;
75858;SDS011;64504;51.308;8.620;2023-03-02T00:47:29;8.00;;;6.88;;
75858;SDS011;64504;51.308;8.620;2023-03-02T00:49:55;10.98;;;7.35;;
75858;SDS011;64504;51.308;8.620;2023-03-02T00:52:21;10.30;;;7.53;;
75858;SDS011;64504;51.308;8.620;2023-03-02T00:54:46;13.80;;;7.18;;
75858;SDS011;64504;51.308;8.620;2023-03-02T00:57:11;10.90;;;8.00;;
75858;SDS011;64504;51.308;8.620;2023-03-02T00:59:37;8.90;;;7.40;;
75858;SDS011;64504;51.308;8.620;2023-03-02T01:02:04;10.95;;;7.90;;
75858;SDS011;64504;51.308;8.620;2023-03-02T01:04:32;10.27;;;7.72;;
75858;SDS011;64504;51.308;8.620;2023-03-02T01:07:00;7.55;;;6.38;;
75858;SDS011;64504;51.308;8.620;2023-03-02T01:09:29;17.45;;;8.30;;
75858;SDS011;64504;51.308;8.620;2023-03-02T01:11:55;14.32;;;8.75;;
75858;SDS011;64504;51.308;8.620;2023-03-02T01:14:21;10.23;;;6.78;;
75858;SDS011;64504;51.308;8.620;2023-03-02T01:16:47;7.40;;;6.53;;
75858;SDS011;64504;51.308;8.620;2023-03-02T01:19:13;11.30;;;7.60;;
75858;SDS011;64504;51.308;8.620;2023-03-02T01:21:39;10.57;;;7.43;;
75858;SDS011;64504;51.308;8.620;2023-03-02T01:24:06;9.75;;;7.13;;
75858;SDS011;64504;51.308;8.620;2023-03-02T01:26:32;9.43;;;7.40;;
75858;SDS011;64504;51.308;8.620;2023-03-02T01:28:59;10.93;;;7.18;;
75858;SDS011;64504;51.308;8.620;2023-03-02T01:31:24;13.23;;;8.07;;
75858;SDS011;64504;51.308;8.620;2023-03-02T01:33:51;8.98;;;7.95;;
75858;SDS011;64504;51.308;8.620;2023-03-02T01:36:17;10.98;;;8.90;;
75858;SDS011;64504;51.308;8.620;2023-03-02T01:38:44;10.00;;;7.20;;
75858;SDS011;64504;51.308;8.620;2023-03-02T01:41:10;9.45;;;8.25;;
75858;SDS011;64504;51.308;8.620;2023-03-02T01:43:36;19.80;;;8.25;;
75858;SDS011;64504;51.308;8.620;2023-03-02T01:48:47;10.63;;;7.40;;
75858;SDS011;64504;51.308;8.620;2023-03-02T01:51:27;11.55;;;7.38;;
75858;SDS011;64504;51.308;8.620;2023-03-02T01:53:55;17.08;;;7.32;;
75858;SDS011;64504;51.308;8.620;2023-03-02T01:56:27;7.97;;;6.82;;
75858;SDS011;64504;51.308;8.620;2023-03-02T01:58:58;15.40;;;9.38;;
75858;SDS011;64504;51.308;8.620;2023-03-02T02:01:28;10.68;;;6.82;;
75858;SDS011;64504;51.308;8.620;2023-03-02T02:03:54;8.40;;;7.45;;
75858;SDS011;64504;51.308;8.620;2023-03-02T02:06:40;9.90;;;8.70;;
75858;SDS011;64504;51.308;8.620;2023-03-02T02:09:09;7.97;;;6.72;;
75858;SDS011;64504;51.308;8.620;2023-03-02T02:11:40;19.67;;;10.18;;
75858;SDS011;64504;51.308;8.620;2023-03-02T02:14:06;16.55;;;7.53;;
75858;SDS011;64504;51.308;8.620;2023-03-02T02:16:34;7.68;;;6.50;;
75858;SDS011;64504;51.308;8.620;2023-03-02T02:18:59;11.55;;;8.50;;
75858;SDS011;64504;51.308;8.620;2023-03-02T02:21:25;9.00;;;7.82;;
75858;SDS011;64504;51.308;8.620;2023-03-02T02:26:46;13.18;;;7.68;;
75858;SDS011;64504;51.308;8.620;2023-03-02T02:29:14;11.18;;;8.02;;
75858;SDS011;64504;51.308;8.620;2023-03-02T02:31:45;9.77;;;8.18;;
75858;SDS011;64504;51.308;8.620;2023-03-02T02:35:14;11.93;;;7.90;;
75858;SDS011;64504;51.308;8.620;2023-03-02T02:40:03;11.85;;;7.25;;
75858;SDS011;64504;51.308;8.620;2023-03-02T02:42:33;16.45;;;8.20;;
75858;SDS011;64504;51.308;8.620;2023-03-02T02:45:04;20.10;;;7.35;;
75858;SDS011;64504;51.308;8.620;2023-03-02T02:47:32;11.20;;;7.25;;
75858;SDS011;64504;51.308;8.620;2023-03-02T02:49:58;18.13;;;7.22;;
75858;SDS011;64504;51.308;8.620;2023-03-02T02:52:24;10.07;;;7.80;;
75858;SDS011;64504;51.308;8.620;2023-03-02T02:54:52;12.98;;;8.07;;
75858;SDS011;64504;51.308;8.620;2023-03-02T02:57:19;10.65;;;6.60;;
75858;SDS011;64504;51.308;8.620;2023-03-02T02:59:49;12.77;;;7.55;;
75858;SDS011;64504;51.308;8.620;2023-03-02T03:02:18;14.23;;;6.65;;
75858;SDS011;64504;51.308;8.620;2023-03-02T03:04:45;9.07;;;7.45;;
75858;SDS011;64504;51.308;8.620;2023-03-02T03:07:12;11.50;;;8.23;;
75858;SDS011;64504;51.308;8.620;2023-03-02T03:12:36;11.15;;;7.88;;
75858;SDS011;64504;51.308;8.620;2023-03-02T03:15:09;9.88;;;6.57;;
75858;SDS011;64504;51.308;8.620;2023-03-02T03:17:35;9.85;;;7.18;;
75858;SDS011;64504;51.308;8.620;2023-03-02T03:20:01;10.88;;;7.75;;
75858;SDS011;64504;51.308;8.620;2023-03-02T03:22:33;8.80;;;7.80;;
75858;SDS011;64504;51.308;8.620;2023-03-02T03:25:00;8.07;;;7.15;;
75858;SDS011;64504;51.308;8.620;2023-03-02T03:27:25;11.50;;;7.15;;
75858;SDS011;64504;51.308;8.620;2023-03-02T03:29:51;13.57;;;7.28;;
75858;SDS011;64504;51.308;8.620;2023-03-02T03:32:17;10.80;;;6.57;;
75858;SDS011;64504;51.308;8.620;2023-03-02T03:34:43;10.77;;;6.70;;
75858;SDS011;64504;51.308;8.620;2023-03-02T03:37:10;14.35;;;8.20;;
75858;SDS011;64504;51.308;8.620;2023-03-02T03:39:38;16.83;;;8.30;;
75858;SDS011;64504;51.308;8.620;2023-03-02T03:42:03;13.13;;;9.43;;
75858;SDS011;64504;51.308;8.620;2023-03-02T03:44:29;9.65;;;7.28;;
75858;SDS011;64504;51.308;8.620;2023-03-02T03:46:55;16.63;;;7.50;;
75858;SDS011;64504;51.308;8.620;2023-03-02T03:49:20;10.25;;;7.10;;
75858;SDS011;64504;51.308;8.620;2023-03-02T03:51:46;9.20;;;7.60;;
75858;SDS011;64504;51.308;8.620;2023-03-02T03:54:12;8.50;;;5.97;;
75858;SDS011;64504;51.308;8.620;2023-03-02T03:56:39;9.55;;;6.60;;
75858;SDS011;64504;51.308;8.620;2023-03-02T03:59:07;13.05;;;7.95;;
75858;SDS011;64504;51.308;8.620;2023-03-02T04:01:37;9.32;;;7.20;;
75858;SDS011;64504;51.308;8.620;2023-03-02T04:04:08;15.00;;;7.50;;
75858;SDS011;64504;51.308;8.620;2023-03-02T04:06:35;11.45;;;7.75;;
75858;SDS011;64504;51.308;8.620;2023-03-02T04:09:00;12.88;;;8.02;;
75858;SDS011;64504;51.308;8.620;2023-03-02T04:11:29;6.57;;;5.95;;
75858;SDS011;64504;51.308;8.620;2023-03-02T04:13:58;10.00;;;8.27;;
75858;SDS011;64504;51.308;8.620;2023-03-02T04:16:23;12.00;;;9.02;;
75858;SDS011;64504;51.308;8.620;2023-03-02T04:18:49;18.30;;;7.72;;
75858;SDS011;64504;51.308;8.620;2023-03-02T04:21:14;13.23;;;7.20;;
75858;SDS011;64504;51.308;8.620;2023-03-02T04:23:41;14.93;;;7.95;;
75858;SDS011;64504;51.308;8.620;2023-03-02T04:26:06;9.02;;;7.15;;
75858;SDS011;64504;51.308;8.620;2023-03-02T04:28:31;11.38;;;8.05;;
75858;SDS011;64504;51.308;8.620;2023-03-02T04:30:57;14.65;;;9.27;;
75858;SDS011;64504;51.308;8.620;2023-03-02T04:33:22;10.73;;;8.70;;
75858;SDS011;64504;51.308;8.620;2023-03-02T04:35:48;12.18;;;7.05;;
75858;SDS011;64504;51.308;8.620;2023-03-02T04:38:14;11.75;;;8.05;;
75858;SDS011;64504;51.308;8.620;2023-03-02T04:40:39;14.05;;;8.15;;
75858;SDS011;64504;51.308;8.620;2023-03-02T04:43:04;11.32;;;8.05;;
75858;SDS011;64504;51.308;8.620;2023-03-02T04:45:30;10.73;;;6.50;;
75858;SDS011;64504;51.308;8.620;2023-03-02T04:47:55;12.07;;;7.85;;
75858;SDS011;64504;51.308;8.620;2023-03-02T04:50:31;7.75;;;6.95;;
75858;SDS011;64504;51.308;8.620;2023-03-02T04:52:56;13.18;;;8.75;;
75858;SDS011;64504;51.308;8.620;2023-03-02T04:55:23;11.32;;;7.22;;
75858;SDS011;64504;51.308;8.620;2023-03-02T04:57:49;10.70;;;7.80;;
75858;SDS011;64504;51.308;8.620;2023-03-02T05:00:15;7.07;;;6.38;;
75858;SDS011;64504;51.308;8.620;2023-03-02T05:02:41;9.90;;;7.38;;
75858;SDS011;64504;51.308;8.620;2023-03-02T05:05:08;8.98;;;6.53;;
75858;SDS011;64504;51.308;8.620;2023-03-02T05:07:39;8.98;;;7.45;;
75858;SDS011;64504;51.308;8.620;2023-03-02T05:10:04;15.85;;;8.45;;
75858;SDS011;64504;51.308;8.620;2023-03-02T05:12:30;9.32;;;7.07;;
75858;SDS011;64504;51.308;8.620;2023-03-02T05:15:16;8.60;;;6.30;;
75858;SDS011;64504;51.308;8.620;2023-03-02T05:17:41;11.05;;;8.98;;
75858;SDS011;64504;51.308;8.620;2023-03-02T05:20:08;16.63;;;8.45;;
75858;SDS011;64504;51.308;8.620;2023-03-02T05:22:35;14.82;;;7.80;;
75858;SDS011;64504;51.308;8.620;2023-03-02T05:25:04;9.30;;;7.22;;
75858;SDS011;64504;51.308;8.620;2023-03-02T05:27:31;14.23;;;8.20;;
75858;SDS011;64504;51.308;8.620;2023-03-02T05:29:56;15.52;;;7.93;;
75858;SDS011;64504;51.308;8.620;2023-03-02T05:32:22;13.65;;;8.00;;
75858;SDS011;64504;51.308;8.620;2023-03-02T05:34:47;12.73;;;8.13;;
75858;SDS011;64504;51.308;8.620;2023-03-02T05:37:12;8.30;;;7.35;;
75858;SDS011;64504;51.308;8.620;2023-03-02T05:39:38;10.15;;;7.70;;
75858;SDS011;64504;51.308;8.620;2023-03-02T05:42:03;9.43;;;8.30;;
75858;SDS011;64504;51.308;8.620;2023-03-02T05:44:29;11.02;;;8.07;;
75858;SDS011;64504;51.308;8.620;2023-03-02T05:46:55;10.10;;;7.35;;
75858;SDS011;64504;51.308;8.620;2023-03-02T05:49:20;10.55;;;7.13;;
75858;SDS011;64504;51.308;8.620;2023-03-02T05:51:46;8.75;;;7.05;;
75858;SDS011;64504;51.308;8.620;2023-03-02T05:54:13;11.68;;;7.93;;
75858;SDS011;64504;51.308;8.620;2023-03-02T05:56:39;14.77;;;7.70;;
75858;SDS011;64504;51.308;8.620;2023-03-02T05:59:05;16.83;;;7.60;;
75858;SDS011;64504;51.308;8.620;2023-03-02T06:01:32;7.85;;;7.05;;
75858;SDS011;64504;51.308;8.620;2023-03-02T06:03:59;9.75;;;8.68;;
75858;SDS011;64504;51.308;8.620;2023-03-02T06:06:24;15.52;;;7.90;;
75858;SDS011;64504;51.308;8.620;2023-03-02T06:08:50;10.68;;;8.43;;
75858;SDS011;64504;51.308;8.620;2023-03-02T06:11:15;7.90;;;7.15;;
75858;SDS011;64504;51.308;8.620;2023-03-02T06:13:41;15.48;;;7.95;;
75858;SDS011;64504;51.308;8.620;2023-03-02T06:16:08;12.45;;;8.40;;
75858;SDS011;64504;51.308;8.620;2023-03-02T06:18:34;14.82;;;9.02;;
75858;SDS011;64504;51.308;8.620;2023-03-02T06:21:04;10.82;;;8.02;;
75858;SDS011;64504;51.308;8.620;2023-03-02T06:23:30;11.65;;;8.77;;
75858;SDS011;64504;51.308;8.620;2023-03-02T06:25:56;14.32;;;9.55;;
75858;SDS011;64504;51.308;8.620;2023-03-02T06:28:22;14.35;;;9.10;;
75858;SDS011;64504;51.308;8.620;2023-03-02T06:30:49;17.50;;;9.57;;
75858;SDS011;64504;51.308;8.620;2023-03-02T06:33:16;11.23;;;8.77;;
75858;SDS011;64504;51.308;8.620;2023-03-02T06:35:44;11.68;;;7.85;;
75858;SDS011;64504;51.308;8.620;2023-03-02T06:38:10;14.32;;;8.68;;
75858;SDS011;64504;51.308;8.620;2023-03-02T06:40:35;13.15;;;9.65;;
75858;SDS011;64504;51.308;8.620;2023-03-02T06:43:01;9.27;;;7.60;;
75858;SDS011;64504;51.308;8.620;2023-03-02T06:45:27;13.43;;;8.05;;
75858;SDS011;64504;51.308;8.620;2023-03-02T06:47:53;9.90;;;7.15;;
75858;SDS011;64504;51.308;8.620;2023-03-02T06:50:19;9.85;;;5.88;;
75858;SDS011;64504;51.308;8.620;2023-03-02T06:52:44;15.38;;;9.07;;
75858;SDS011;64504;51.308;8.620;2023-03-02T06:55:10;10.68;;;6.97;;
75858;SDS011;64504;51.308;8.620;2023-03-02T06:57:35;9.30;;;7.03;;
75858;SDS011;64504;51.308;8.620;2023-03-02T07:00:05;14.57;;;8.18;;
75858;SDS011;64504;51.308;8.620;2023-03-02T07:02:42;13.02;;;9.43;;
75858;SDS011;64504;51.308;8.620;2023-03-02T07:05:08;12.48;;;7.88;;
75858;SDS011;64504;51.308;8.620;2023-03-02T07:10:05;13.00;;;8.68;;
75858;SDS011;64504;51.308;8.620;2023-03-02T07:12:32;11.65;;;9.38;;
75858;SDS011;64504;51.308;8.620;2023-03-02T07:14:58;16.85;;;10.23;;
75858;SDS011;64504;51.308;8.620;2023-03-02T07:17:24;11.80;;;10.32;;
75858;SDS011;64504;51.308;8.620;2023-03-02T07:19:50;22.80;;;10.75;;
75858;SDS011;64504;51.308;8.620;2023-03-02T07:22:15;12.10;;;8.98;;
75858;SDS011;64504;51.308;8.620;2023-03-02T07:24:41;19.35;;;12.40;;
75858;SDS011;64504;51.308;8.620;2023-03-02T07:27:06;12.82;;;8.52;;
75858;SDS011;64504;51.308;8.620;2023-03-02T07:29:32;22.65;;;14.63;;
75858;SDS011;64504;51.308;8.620;2023-03-02T07:31:58;12.10;;;9.10;;
75858;SDS011;64504;51.308;8.620;2023-03-02T07:34:23;10.02;;;7.60;;
75858;SDS011;64504;51.308;8.620;2023-03-02T07:36:49;9.27;;;8.38;;
75858;SDS011;64504;51.308;8.620;2023-03-02T07:39:15;10.85;;;7.10;;
75858;SDS011;64504;51.308;8.620;2023-03-02T07:41:41;12.18;;;8.88;;
75858;SDS011;64504;51.308;8.620;2023-03-02T07:44:06;7.70;;;5.70;;
75858;SDS011;64504;51.308;8.620;2023-03-02T07:46:32;9.52;;;8.50;;
75858;SDS011;64504;51.308;8.620;2023-03-02T07:48:57;7.47;;;5.60;;
75858;SDS011;64504;51.308;8.620;2023-03-02T07:51:25;6.78;;;5.95;;
75858;SDS011;64504;51.308;8.620;2023-03-02T07:53:51;14.10;;;6.93;;
75858;SDS011;64504;51.308;8.620;2023-03-02T07:56:16;10.43;;;7.30;;
75858;SDS011;64504;51.308;8.620;2023-03-02T07:58:42;9.82;;;6.38;;
75858;SDS011;64504;51.308;8.620;2023-03-02T08:01:08;10.48;;;5.65;;
75858;SDS011;64504;51.308;8.620;2023-03-02T08:03:34;5.50;;;4.85;;
75858;SDS011;64504;51.308;8.620;2023-03-02T08:06:13;5.88;;;5.30;;
75858;SDS011;64504;51.308;8.620;2023-03-02T08:08:38;9.70;;;5.55;;
75858;SDS011;64504;51.308;8.620;2023-03-02T08:11:11;9.07;;;5.90;;
75858;SDS011;64504;51.308;8.620;2023-03-02T08:13:39;5.80;;;4.85;;
75858;SDS011;64504;51.308;8.620;2023-03-02T08:16:05;5.93;;;4.50;;
75858;SDS011;64504;51.308;8.620;2023-03-02T08:18:32;6.47;;;4.82;;
75858;SDS011;64504;51.308;8.620;2023-03-02T08:20:58;7.00;;;3.42;;
75858;SDS011;64504;51.308;8.620;2023-03-02T08:23:25;6.47;;;4.88;;
75858;SDS011;64504;51.308;8.620;2023-03-02T08:25:51;6.15;;;4.22;;
75858;SDS011;64504;51.308;8.620;2023-03-02T08:28:18;7.25;;;4.03;;
75858;SDS011;64504;51.308;8.620;2023-03-02T08:30:44;14.98;;;7.03;;
75858;SDS011;64504;51.308;8.620;2023-03-02T08:33:10;4.70;;;4.13;;
75858;SDS011;64504;51.308;8.620;2023-03-02T08:35:36;6.78;;;5.13;;
75858;SDS011;64504;51.308;8.620;2023-03-02T08:38:02;7.25;;;4.72;;
75858;SDS011;64504;51.308;8.620;2023-03-02T08:40:27;4.47;;;3.97;;
75858;SDS011;64504;51.308;8.620;2023-03-02T08:42:53;5.75;;;3.75;;
75858;SDS011;64504;51.308;8.620;2023-03-02T08:45:26;6.40;;;5.10;;
75858;SDS011;64504;51.308;8.620;2023-03-02T08:47:52;7.43;;;4.85;;
75858;SDS011;64504;51.308;8.620;2023-03-02T08:50:18;5.82;;;5.20;;
75858;SDS011;64504;51.308;8.620;2023-03-02T08:52:44;4.97;;;3.97;;
75858;SDS011;64504;51.308;8.620;2023-03-02T08:55:11;6.85;;;4.35;;
75858;SDS011;64504;51.308;8.620;2023-03-02T08:57:36;6.00;;;4.30;;
75858;SDS011;64504;51.308;8.620;2023-03-02T09:00:02;4.65;;;3.63;;
75858;SDS011;64504;51.308;8.620;2023-03-02T09:02:32;6.40;;;4.97;;
75858;SDS011;64504;51.308;8.620;2023-03-02T09:04:58;4.72;;;4.25;;
75858;SDS011;64504;51.308;8.620;2023-03-02T09:07:25;8.23;;;4.88;;
75858;SDS011;64504;51.308;8.620;2023-03-02T09:09:50;6.07;;;4.63;;
75858;SDS011;64504;51.308;8.620;2023-03-02T09:12:16;6.68;;;5.55;;
75858;SDS011;64504;51.308;8.620;2023-03-02T09:14:41;8.75;;;4.82;;
75858;SDS011;64504;51.308;8.620;2023-03-02T09:17:07;5.25;;;4.30;;
75858;SDS011;64504;51.308;8.620;2023-03-02T09:19:32;4.18;;;3.78;;
75858;SDS011;64504;51.308;8.620;2023-03-02T09:22:05;5.75;;;4.55;;
75858;SDS011;64504;51.308;8.620;2023-03-02T09:24:32;6.80;;;4.35;;
75858;SDS011;64504;51.308;8.620;2023-03-02T09:26:57;5.32;;;4.00;;
75858;SDS011;64504;51.308;8.620;2023-03-02T09:29:24;5.10;;;4.32;;
75858;SDS011;64504;51.308;8.620;2023-03-02T09:31:53;5.97;;;4.03;;
75858;SDS011;64504;51.308;8.620;2023-03-02T09:34:20;5.82;;;4.05;;
75858;SDS011;64504;51.308;8.620;2023-03-02T09:36:46;5.03;;;3.83;;
75858;SDS011;64504;51.308;8.620;2023-03-02T09:39:18;5.57;;;4.22;;
75858;SDS011;64504;51.308;8.620;2023-03-02T09:41:55;5.57;;;4.97;;
75858;SDS011;64504;51.308;8.620;2023-03-02T09:50:03;10.75;;;4.47;;
75858;SDS011;64504;51.308;8.620;2023-03-02T09:52:38;6.55;;;4.28;;
75858;SDS011;64504;51.308;8.620;2023-03-02T09:55:19;5.07;;;3.90;;
75858;SDS011;64504;51.308;8.620;2023-03-02T09:57:48;4.70;;;3.28;;
75858;SDS011;64504;51.308;8.620;2023-03-02T10:02:53;6.10;;;4.72;;
75858;SDS011;64504;51.308;8.620;2023-03-02T10:05:22;4.70;;;4.30;;
75858;SDS011;64504;51.308;8.620;2023-03-02T10:07:52;5.13;;;4.38;;
75858;SDS011;64504;51.308;8.620;2023-03-02T10:13:25;5.28;;;3.78;;
75858;SDS011;64504;51.308;8.620;2023-03-02T10:23:38;9.32;;;3.97;;
75858;SDS011;64504;51.308;8.620;2023-03-02T10:31:37;4.18;;;3.13;;
75858;SDS011;64504;51.308;8.620;2023-03-02T10:34:09;7.25;;;4.55;;
75858;SDS011;64504;51.308;8.620;2023-03-02T10:36:39;4.35;;;3.28;;
75858;SDS011;64504;51.308;8.620;2023-03-02T10:39:09;4.22;;;3.40;;
75858;SDS011;64504;51.308;8.620;2023-03-02T10:41:41;4.35;;;3.95;;
75858;SDS011;64504;51.308;8.620;2023-03-02T10:44:14;4.53;;;3.83;;
75858;SDS011;64504;51.308;8.620;2023-03-02T10:46:46;4.13;;;3.72;;
75858;SDS011;64504;51.308;8.620;2023-03-02T10:49:46;5.13;;;4.03;;
75858;SDS011;64504;51.308;8.620;2023-03-02T10:54:39;8.07;;;3.85;;
75858;SDS011;64504;51.308;8.620;2023-03-02T10:57:16;4.72;;;3.53;;
75858;SDS011;64504;51.308;8.620;2023-03-02T10:59:50;5.27;;;4.07;;
75858;SDS011;64504;51.308;8.620;2023-03-02T11:02:20;4.25;;;2.92;;
75858;SDS011;64504;51.308;8.620;2023-03-02T11:04:56;5.85;;;4.32;;
75858;SDS011;64504;51.308;8.620;2023-03-02T11:07:24;3.83;;;3.53;;
75858;SDS011;64504;51.308;8.620;2023-03-02T11:09:56;5.68;;;4.20;;
75858;SDS011;64504;51.308;8.620;2023-03-02T11:12:22;5.97;;;3.83;;
75858;SDS011;64504;51.308;8.620;2023-03-02T11:14:48;7.78;;;3.70;;
75858;SDS011;64504;51.308;8.620;2023-03-02T11:20:18;3.90;;;3.35;;
75858;SDS011;64504;51.308;8.620;2023-03-02T11:23:01;7.72;;;4.93;;
75858;SDS011;64504;51.308;8.620;2023-03-02T11:25:36;6.38;;;4.20;;
75858;SDS011;64504;51.308;8.620;2023-03-02T11:28:50;5.15;;;3.65;;
75858;SDS011;64504;51.308;8.620;2023-03-02T11:30:55;5.70;;;3.00;;
75858;SDS011;64504;51.308;8.620;2023-03-02T11:33:27;6.82;;;3.70;;
75858;SDS011;64504;51.308;8.620;2023-03-02T11:36:18;4.57;;;3.63;;
75858;SDS011;64504;51.308;8.620;2023-03-02T11:38:52;4.63;;;3.78;;
75858;SDS011;64504;51.308;8.620;2023-03-02T11:41:24;8.90;;;4.60;;
75858;SDS011;64504;51.308;8.620;2023-03-02T11:43:54;6.25;;;4.38;;
75858;SDS011;64504;51.308;8.620;2023-03-02T11:46:26;3.95;;;3.65;;
75858;SDS011;64504;51.308;8.620;2023-03-02T11:48:56;6.50;;;3.85;;
75858;SDS011;64504;51.308;8.620;2023-03-02T11:51:29;5.22;;;4.22;;
75858;SDS011;64504;51.308;8.620;2023-03-02T11:56:53;4.15;;;3.65;;
75858;SDS011;64504;51.308;8.620;2023-03-02T11:59:19;5.60;;;2.83;;
75858;SDS011;64504;51.308;8.620;2023-03-02T12:01:46;4.00;;;3.58;;
75858;SDS011;64504;51.308;8.620;2023-03-02T12:04:33;3.33;;;2.90;;
75858;SDS011;64504;51.308;8.620;2023-03-02T12:07:16;5.32;;;4.13;;
75858;SDS011;64504;51.308;8.620;2023-03-02T12:09:42;4.03;;;3.25;;
75858;SDS011;64504;51.308;8.620;2023-03-02T12:12:15;7.38;;;3.10;;
75858;SDS011;64504;51.308;8.620;2023-03-02T12:15:01;6.00;;;3.90;;
75858;SDS011;64504;51.308;8.620;2023-03-02T12:20:40;4.63;;;4.10;;
75858;SDS011;64504;51.308;8.620;2023-03-02T12:27:48;21.20;;;6.70;;
75858;SDS011;64504;51.308;8.620;2023-03-02T12:32:44;4.00;;;3.15;;
75858;SDS011;64504;51.308;8.620;2023-03-02T12:35:13;5.40;;;4.90;;
75858;SDS011;64504;51.308;8.620;2023-03-02T12:46:01;4.57;;;3.72;;
75858;SDS011;64504;51.308;8.620;2023-03-02T12:48:46;5.50;;;4.28;;
75858;SDS011;64504;51.308;8.620;2023-03-02T12:51:18;9.75;;;5.38;;
75858;SDS011;64504;51.308;8.620;2023-03-02T12:53:46;6.00;;;4.93;;
75858;SDS011;64504;51.308;8.620;2023-03-02T12:56:23;5.22;;;3.95;;
75858;SDS011;64504;51.308;8.620;2023-03-02T12:58:49;5.97;;;4.47;;
75858;SDS011;64504;51.308;8.620;2023-03-02T13:01:20;5.10;;;3.88;;
75858;SDS011;64504;51.308;8.620;2023-03-02T13:03:50;8.27;;;5.35;;
75858;SDS011;64504;51.308;8.620;2023-03-02T13:06:17;5.13;;;4.63;;
75858;SDS011;64504;51.308;8.620;2023-03-02T13:08:44;4.32;;;3.92;;
75858;SDS011;64504;51.308;8.620;2023-03-02T13:11:11;5.50;;;3.88;;
75858;SDS011;64504;51.308;8.620;2023-03-02T13:13:41;5.68;;;4.10;;
75858;SDS011;64504;51.308;8.620;2023-03-02T13:18:46;4.93;;;3.95;;
75858;SDS011;64504;51.308;8.620;2023-03-02T13:21:14;5.93;;;4.53;;
75858;SDS011;64504;51.308;8.620;2023-03-02T13:23:45;6.57;;;3.20;;
75858;SDS011;64504;51.308;8.620;2023-03-02T13:26:34;8.37;;;4.87;;
75858;SDS011;64504;51.308;8.620;2023-03-02T13:31:30;5.28;;;3.58;;
75858;SDS011;64504;51.308;8.620;2023-03-02T13:33:56;5.82;;;3.92;;
75858;SDS011;64504;51.308;8.620;2023-03-02T13:38:56;5.82;;;4.32;;
75858;SDS011;64504;51.308;8.620;2023-03-02T13:41:27;5.80;;;4.25;;
75858;SDS011;64504;51.308;8.620;2023-03-02T13:43:56;5.22;;;4.63;;
75858;SDS011;64504;51.308;8.620;2023-03-02T13:46:24;4.93;;;4.05;;
75858;SDS011;64504;51.308;8.620;2023-03-02T13:49:04;4.47;;;3.65;;
75858;SDS011;64504;51.308;8.620;2023-03-02T13:51:34;4.65;;;4.25;;
75858;SDS011;64504;51.308;8.620;2023-03-02T13:54:02;10.85;;;4.18;;
75858;SDS011;64504;51.308;8.620;2023-03-02T13:56:32;8.02;;;3.80;;
75858;SDS011;64504;51.308;8.620;2023-03-02T13:59:00;6.40;;;4.50;;
75858;SDS011;64504;51.308;8.620;2023-03-02T14:01:26;4.45;;;3.92;;
75858;SDS011;64504;51.308;8.620;2023-03-02T14:03:52;5.95;;;4.20;;
75858;SDS011;64504;51.308;8.620;2023-03-02T14:06:20;6.78;;;4.47;;
75858;SDS011;64504;51.308;8.620;2023-03-02T14:08:45;5.05;;;3.45;;
75858;SDS011;64504;51.308;8.620;2023-03-02T14:11:13;7.90;;;4.47;;
75858;SDS011;64504;51.308;8.620;2023-03-02T14:13:41;5.40;;;4.10;;
75858;SDS011;64504;51.308;8.620;2023-03-02T14:18:40;8.95;;;5.25;;
75858;SDS011;64504;51.308;8.620;2023-03-02T14:21:19;9.20;;;4.65;;
75858;SDS011;64504;51.308;8.620;2023-03-02T14:23:46;9.45;;;4.80;;
75858;SDS011;64504;51.308;8.620;2023-03-02T14:28:56;7.65;;;5.15;;
75858;SDS011;64504;51.308;8.620;2023-03-02T14:31:24;15.07;;;5.35;;
75858;SDS011;64504;51.308;8.620;2023-03-02T14:33:51;4.78;;;4.35;;
75858;SDS011;64504;51.308;8.620;2023-03-02T14:36:22;4.07;;;3.70;;
75858;SDS011;64504;51.308;8.620;2023-03-02T14:38:55;4.57;;;4.15;;
75858;SDS011;64504;51.308;8.620;2023-03-02T14:41:23;7.63;;;4.63;;
75858;SDS011;64504;51.308;8.620;2023-03-02T14:43:49;6.10;;;5.00;;
75858;SDS011;64504;51.308;8.620;2023-03-02T14:46:15;5.60;;;4.55;;
75858;SDS011;64504;51.308;8.620;2023-03-02T14:48:44;5.80;;;4.82;;
75858;SDS011;64504;51.308;8.620;2023-03-02T14:51:18;7.60;;;4.18;;
75858;SDS011;64504;51.308;8.620;2023-03-02T14:53:51;5.47;;;3.90;;
75858;SDS011;64504;51.308;8.620;2023-03-02T14:56:21;10.00;;;5.85;;
75858;SDS011;64504;51.308;8.620;2023-03-02T14:58:48;7.05;;;4.00;;
75858;SDS011;64504;51.308;8.620;2023-03-02T15:01:16;5.03;;;4.07;;
75858;SDS011;64504;51.308;8.620;2023-03-02T15:03:42;3.83;;;3.42;;
75858;SDS011;64504;51.308;8.620;2023-03-02T15:08:48;8.27;;;5.10;;
75858;SDS011;64504;51.308;8.620;2023-03-02T15:11:13;3.17;;;2.88;;
75858;SDS011;64504;51.308;8.620;2023-03-02T15:13:39;11.43;;;4.30;;
75858;SDS011;64504;51.308;8.620;2023-03-02T15:16:08;7.43;;;4.63;;
75858;SDS011;64504;51.308;8.620;2023-03-02T15:18:34;7.20;;;4.63;;
75858;SDS011;64504;51.308;8.620;2023-03-02T15:21:00;6.10;;;3.97;;
75858;SDS011;64504;51.308;8.620;2023-03-02T15:23:25;8.15;;;7.28;;
75858;SDS011;64504;51.308;8.620;2023-03-02T15:25:51;7.32;;;5.07;;
75858;SDS011;64504;51.308;8.620;2023-03-02T15:28:18;6.38;;;4.65;;
75858;SDS011;64504;51.308;8.620;2023-03-02T15:30:43;9.05;;;6.47;;
75858;SDS011;64504;51.308;8.620;2023-03-02T15:33:09;9.10;;;5.90;;
75858;SDS011;64504;51.308;8.620;2023-03-02T15:35:36;8.05;;;5.95;;
75858;SDS011;64504;51.308;8.620;2023-03-02T15:38:02;8.32;;;6.10;;
75858;SDS011;64504;51.308;8.620;2023-03-02T15:40:29;11.23;;;7.45;;
75858;SDS011;64504;51.308;8.620;2023-03-02T15:42:55;9.45;;;6.47;;
75858;SDS011;64504;51.308;8.620;2023-03-02T15:45:25;11.30;;;9.40;;
75858;SDS011;64504;51.308;8.620;2023-03-02T15:47:51;11.93;;;8.88;;
75858;SDS011;64504;51.308;8.620;2023-03-02T15:50:18;13.38;;;9.52;;
75858;SDS011;64504;51.308;8.620;2023-03-02T15:52:44;8.82;;;7.40;;
75858;SDS011;64504;51.308;8.620;2023-03-02T15:55:10;13.10;;;10.50;;
75858;SDS011;64504;51.308;8.620;2023-03-02T15:57:39;6.35;;;5.75;;
75858;SDS011;64504;51.308;8.620;2023-03-02T16:00:05;10.15;;;8.15;;
75858;SDS011;64504;51.308;8.620;2023-03-02T16:02:31;15.63;;;6.68;;
75858;SDS011;64504;51.308;8.620;2023-03-02T16:04:57;6.80;;;5.95;;
75858;SDS011;64504;51.308;8.620;2023-03-02T16:07:22;4.78;;;4.45;;
75858;SDS011;64504;51.308;8.620;2023-03-02T16:09:47;9.35;;;6.85;;
75858;SDS011;64504;51.308;8.620;2023-03-02T16:12:13;8.23;;;5.68;;
75858;SDS011;64504;51.308;8.620;2023-03-02T16:14:42;6.90;;;6.03;;